sensor_id;sensor_type;location;lat;lon;timestamp;P1;durP1;ratioP1;P2;durP2;ratioP2
8102;SDS011;4094;49.948;11.574;2023-06-14T00:01:09;8.93;;;7.33;;
8102;SDS011;4094;49.948;11.574;2023-06-14T00:03:41;7.27;;;6.77;;
8102;SDS011;4094;49.948;11.574;2023-06-14T00:06:10;7.83;;;7.23;;
8102;SDS011;4094;49.948;11.574;2023-06-14T00:08:39;7.80;;;7.10;;
8102;SDS011;4094;49.948;11.574;2023-06-14T00:11:10;8.33;;;7.60;;
8102;SDS011;4094;49.948;11.574;2023-06-14T00:13:39;8.00;;;7.07;;
8102;SDS011;4094;49.948;11.574;2023-06-14T00:16:10;10.33;;;7.50;;
8102;SDS011;4094;49.948;11.574;2023-06-14T00:18:39;8.30;;;7.50;;
8102;SDS011;4094;49.948;11.574;2023-06-14T00:21:09;8.10;;;7.40;;
8102;SDS011;4094;49.948;11.574;2023-06-14T00:23:43;8.70;;;7.87;;
8102;SDS011;4094;49.948;11.574;2023-06-14T00:26:13;7.90;;;7.20;;
8102;SDS011;4094;49.948;11.574;2023-06-14T00:28:44;8.27;;;7.53;;
8102;SDS011;4094;49.948;11.574;2023-06-14T00:31:13;7.77;;;7.27;;
8102;SDS011;4094;49.948;11.574;2023-06-14T00:33:42;7.93;;;7.33;;
8102;SDS011;4094;49.948;11.574;2023-06-14T00:36:12;8.63;;;7.60;;
8102;SDS011;4094;49.948;11.574;2023-06-14T00:38:44;8.37;;;7.67;;
8102;SDS011;4094;49.948;11.574;2023-06-14T00:41:13;9.97;;;7.83;;
8102;SDS011;4094;49.948;11.574;2023-06-14T00:43:43;8.90;;;8.10;;
8102;SDS011;4094;49.948;11.574;2023-06-14T00:46:12;8.23;;;7.47;;
8102;SDS011;4094;49.948;11.574;2023-06-14T00:48:42;8.93;;;7.83;;
8102;SDS011;4094;49.948;11.574;2023-06-14T00:51:11;8.37;;;7.60;;
8102;SDS011;4094;49.948;11.574;2023-06-14T00:53:41;7.97;;;7.27;;
8102;SDS011;4094;49.948;11.574;2023-06-14T00:56:16;8.70;;;7.90;;
8102;SDS011;4094;49.948;11.574;2023-06-14T00:58:50;8.40;;;7.77;;
8102;SDS011;4094;49.948;11.574;2023-06-14T01:01:20;8.10;;;7.50;;
8102;SDS011;4094;49.948;11.574;2023-06-14T01:03:49;9.43;;;7.60;;
8102;SDS011;4094;49.948;11.574;2023-06-14T01:06:21;8.20;;;7.50;;
8102;SDS011;4094;49.948;11.574;2023-06-14T01:09:01;8.83;;;7.90;;
8102;SDS011;4094;49.948;11.574;2023-06-14T01:11:41;8.53;;;7.73;;
8102;SDS011;4094;49.948;11.574;2023-06-14T01:14:16;8.37;;;7.77;;
8102;SDS011;4094;49.948;11.574;2023-06-14T01:16:46;8.57;;;7.87;;
8102;SDS011;4094;49.948;11.574;2023-06-14T01:19:21;8.63;;;7.93;;
8102;SDS011;4094;49.948;11.574;2023-06-14T01:21:52;9.87;;;8.20;;
8102;SDS011;4094;49.948;11.574;2023-06-14T01:24:23;16.57;;;8.37;;
8102;SDS011;4094;49.948;11.574;2023-06-14T01:27:00;19.13;;;9.00;;
8102;SDS011;4094;49.948;11.574;2023-06-14T01:29:31;9.33;;;8.23;;
8102;SDS011;4094;49.948;11.574;2023-06-14T01:32:00;10.00;;;8.33;;
8102;SDS011;4094;49.948;11.574;2023-06-14T01:34:32;9.47;;;8.43;;
8102;SDS011;4094;49.948;11.574;2023-06-14T01:37:02;12.60;;;8.27;;
8102;SDS011;4094;49.948;11.574;2023-06-14T01:39:33;9.10;;;8.20;;
8102;SDS011;4094;49.948;11.574;2023-06-14T01:42:03;12.47;;;8.13;;
8102;SDS011;4094;49.948;11.574;2023-06-14T01:44:34;9.20;;;8.20;;
8102;SDS011;4094;49.948;11.574;2023-06-14T01:47:04;8.80;;;7.90;;
8102;SDS011;4094;49.948;11.574;2023-06-14T01:49:33;8.93;;;8.23;;
8102;SDS011;4094;49.948;11.574;2023-06-14T01:52:03;8.60;;;7.83;;
8102;SDS011;4094;49.948;11.574;2023-06-14T01:54:34;9.23;;;8.33;;
8102;SDS011;4094;49.948;11.574;2023-06-14T01:57:05;12.90;;;8.20;;
8102;SDS011;4094;49.948;11.574;2023-06-14T01:59:34;9.30;;;8.20;;
8102;SDS011;4094;49.948;11.574;2023-06-14T02:02:03;9.17;;;8.47;;
8102;SDS011;4094;49.948;11.574;2023-06-14T02:04:33;8.90;;;8.00;;
8102;SDS011;4094;49.948;11.574;2023-06-14T02:07:02;9.10;;;8.30;;
8102;SDS011;4094;49.948;11.574;2023-06-14T02:09:31;8.47;;;7.63;;
8102;SDS011;4094;49.948;11.574;2023-06-14T02:12:01;9.20;;;8.23;;
8102;SDS011;4094;49.948;11.574;2023-06-14T02:14:30;9.30;;;8.40;;
8102;SDS011;4094;49.948;11.574;2023-06-14T02:17:00;9.27;;;8.13;;
8102;SDS011;4094;49.948;11.574;2023-06-14T02:19:29;8.97;;;8.07;;
8102;SDS011;4094;49.948;11.574;2023-06-14T02:21:58;9.60;;;8.83;;
8102;SDS011;4094;49.948;11.574;2023-06-14T02:24:27;9.23;;;8.43;;
8102;SDS011;4094;49.948;11.574;2023-06-14T02:26:58;8.93;;;8.23;;
8102;SDS011;4094;49.948;11.574;2023-06-14T02:29:30;8.90;;;8.20;;
8102;SDS011;4094;49.948;11.574;2023-06-14T02:31:59;9.67;;;8.67;;
8102;SDS011;4094;49.948;11.574;2023-06-14T02:34:28;9.23;;;8.40;;
8102;SDS011;4094;49.948;11.574;2023-06-14T02:36:57;9.57;;;8.63;;
8102;SDS011;4094;49.948;11.574;2023-06-14T02:39:26;9.07;;;8.30;;
8102;SDS011;4094;49.948;11.574;2023-06-14T02:41:55;9.17;;;8.40;;
8102;SDS011;4094;49.948;11.574;2023-06-14T02:44:24;9.20;;;8.40;;
8102;SDS011;4094;49.948;11.574;2023-06-14T02:46:56;9.60;;;8.43;;
8102;SDS011;4094;49.948;11.574;2023-06-14T02:49:26;8.93;;;8.23;;
8102;SDS011;4094;49.948;11.574;2023-06-14T02:51:55;9.03;;;8.17;;
8102;SDS011;4094;49.948;11.574;2023-06-14T02:54:24;10.03;;;9.00;;
8102;SDS011;4094;49.948;11.574;2023-06-14T02:56:53;9.40;;;8.70;;
8102;SDS011;4094;49.948;11.574;2023-06-14T02:59:22;9.07;;;8.30;;
8102;SDS011;4094;49.948;11.574;2023-06-14T03:01:55;8.30;;;7.50;;
8102;SDS011;4094;49.948;11.574;2023-06-14T03:04:24;9.40;;;8.50;;
8102;SDS011;4094;49.948;11.574;2023-06-14T03:06:54;8.93;;;8.07;;
8102;SDS011;4094;49.948;11.574;2023-06-14T03:09:23;8.50;;;7.80;;
8102;SDS011;4094;49.948;11.574;2023-06-14T03:11:52;9.07;;;8.17;;
8102;SDS011;4094;49.948;11.574;2023-06-14T03:14:22;9.00;;;8.20;;
8102;SDS011;4094;49.948;11.574;2023-06-14T03:16:51;8.70;;;7.90;;
8102;SDS011;4094;49.948;11.574;2023-06-14T03:19:25;8.90;;;8.23;;
8102;SDS011;4094;49.948;11.574;2023-06-14T03:21:55;8.67;;;7.77;;
8102;SDS011;4094;49.948;11.574;2023-06-14T03:24:27;10.67;;;8.07;;
8102;SDS011;4094;49.948;11.574;2023-06-14T03:26:58;8.67;;;8.07;;
8102;SDS011;4094;49.948;11.574;2023-06-14T03:29:29;9.53;;;8.83;;
8102;SDS011;4094;49.948;11.574;2023-06-14T03:31:59;9.17;;;8.30;;
8102;SDS011;4094;49.948;11.574;2023-06-14T03:34:39;8.53;;;7.83;;
8102;SDS011;4094;49.948;11.574;2023-06-14T03:37:14;8.43;;;7.93;;
8102;SDS011;4094;49.948;11.574;2023-06-14T03:39:44;9.07;;;8.20;;
8102;SDS011;4094;49.948;11.574;2023-06-14T03:42:21;8.73;;;8.00;;
8102;SDS011;4094;49.948;11.574;2023-06-14T03:44:50;9.00;;;8.40;;
8102;SDS011;4094;49.948;11.574;2023-06-14T03:47:21;9.07;;;8.43;;
8102;SDS011;4094;49.948;11.574;2023-06-14T03:49:52;9.30;;;8.50;;
8102;SDS011;4094;49.948;11.574;2023-06-14T03:52:21;8.97;;;8.27;;
8102;SDS011;4094;49.948;11.574;2023-06-14T03:54:50;9.63;;;8.80;;
8102;SDS011;4094;49.948;11.574;2023-06-14T03:57:23;9.03;;;8.43;;
8102;SDS011;4094;49.948;11.574;2023-06-14T03:59:54;9.23;;;8.53;;
8102;SDS011;4094;49.948;11.574;2023-06-14T04:02:23;10.03;;;9.23;;
8102;SDS011;4094;49.948;11.574;2023-06-14T04:04:53;8.97;;;8.17;;
8102;SDS011;4094;49.948;11.574;2023-06-14T04:07:23;9.43;;;8.63;;
8102;SDS011;4094;49.948;11.574;2023-06-14T04:09:52;9.40;;;8.60;;
8102;SDS011;4094;49.948;11.574;2023-06-14T04:12:22;9.67;;;8.87;;
8102;SDS011;4094;49.948;11.574;2023-06-14T04:14:52;8.93;;;8.23;;
8102;SDS011;4094;49.948;11.574;2023-06-14T04:17:30;8.67;;;8.00;;
8102;SDS011;4094;49.948;11.574;2023-06-14T04:20:02;8.70;;;8.00;;
8102;SDS011;4094;49.948;11.574;2023-06-14T04:22:34;9.43;;;8.63;;
8102;SDS011;4094;49.948;11.574;2023-06-14T04:25:05;9.60;;;8.63;;
8102;SDS011;4094;49.948;11.574;2023-06-14T04:27:35;9.87;;;8.97;;
8102;SDS011;4094;49.948;11.574;2023-06-14T04:30:06;9.43;;;8.73;;
8102;SDS011;4094;49.948;11.574;2023-06-14T04:32:41;8.97;;;8.27;;
8102;SDS011;4094;49.948;11.574;2023-06-14T04:35:14;9.80;;;8.87;;
8102;SDS011;4094;49.948;11.574;2023-06-14T04:37:45;9.00;;;8.30;;
8102;SDS011;4094;49.948;11.574;2023-06-14T04:40:15;9.40;;;8.47;;
8102;SDS011;4094;49.948;11.574;2023-06-14T04:42:44;9.10;;;8.40;;
8102;SDS011;4094;49.948;11.574;2023-06-14T04:45:15;9.40;;;8.63;;
8102;SDS011;4094;49.948;11.574;2023-06-14T04:47:45;9.70;;;8.90;;
8102;SDS011;4094;49.948;11.574;2023-06-14T04:50:16;9.70;;;8.77;;
8102;SDS011;4094;49.948;11.574;2023-06-14T04:52:47;9.70;;;8.90;;
8102;SDS011;4094;49.948;11.574;2023-06-14T04:55:18;9.67;;;8.87;;
8102;SDS011;4094;49.948;11.574;2023-06-14T04:57:48;8.67;;;7.93;;
8102;SDS011;4094;49.948;11.574;2023-06-14T05:00:20;9.37;;;8.73;;
8102;SDS011;4094;49.948;11.574;2023-06-14T05:02:50;9.10;;;8.40;;
8102;SDS011;4094;49.948;11.574;2023-06-14T05:05:22;9.00;;;8.40;;
8102;SDS011;4094;49.948;11.574;2023-06-14T05:07:52;9.77;;;8.80;;
8102;SDS011;4094;49.948;11.574;2023-06-14T05:10:21;9.60;;;8.80;;
8102;SDS011;4094;49.948;11.574;2023-06-14T05:12:51;9.47;;;8.67;;
8102;SDS011;4094;49.948;11.574;2023-06-14T05:15:20;9.80;;;8.90;;
8102;SDS011;4094;49.948;11.574;2023-06-14T05:17:52;11.60;;;9.20;;
8102;SDS011;4094;49.948;11.574;2023-06-14T05:20:25;9.60;;;8.90;;
8102;SDS011;4094;49.948;11.574;2023-06-14T05:22:54;9.87;;;9.07;;
8102;SDS011;4094;49.948;11.574;2023-06-14T05:25:24;9.70;;;8.80;;
8102;SDS011;4094;49.948;11.574;2023-06-14T05:27:53;8.87;;;8.13;;
8102;SDS011;4094;49.948;11.574;2023-06-14T05:30:22;8.00;;;7.40;;
8102;SDS011;4094;49.948;11.574;2023-06-14T05:32:51;9.80;;;8.90;;
8102;SDS011;4094;49.948;11.574;2023-06-14T05:35:22;9.53;;;8.73;;
8102;SDS011;4094;49.948;11.574;2023-06-14T05:37:55;9.20;;;8.40;;
8102;SDS011;4094;49.948;11.574;2023-06-14T05:40:24;9.03;;;8.27;;
8102;SDS011;4094;49.948;11.574;2023-06-14T05:42:53;10.60;;;8.20;;
8102;SDS011;4094;49.948;11.574;2023-06-14T05:45:22;9.27;;;8.30;;
8102;SDS011;4094;49.948;11.574;2023-06-14T05:47:51;9.90;;;8.00;;
8102;SDS011;4094;49.948;11.574;2023-06-14T05:50:21;30.87;;;10.27;;
8102;SDS011;4094;49.948;11.574;2023-06-14T05:52:51;23.07;;;9.50;;
8102;SDS011;4094;49.948;11.574;2023-06-14T05:55:21;12.17;;;8.53;;
8102;SDS011;4094;49.948;11.574;2023-06-14T05:57:51;8.93;;;7.90;;
8102;SDS011;4094;49.948;11.574;2023-06-14T06:00:20;11.03;;;7.80;;
8102;SDS011;4094;49.948;11.574;2023-06-14T06:02:49;9.10;;;8.10;;
8102;SDS011;4094;49.948;11.574;2023-06-14T06:05:19;8.33;;;7.73;;
8102;SDS011;4094;49.948;11.574;2023-06-14T06:07:48;8.50;;;7.80;;
8102;SDS011;4094;49.948;11.574;2023-06-14T06:10:17;7.67;;;7.00;;
8102;SDS011;4094;49.948;11.574;2023-06-14T06:12:48;8.00;;;7.20;;
8102;SDS011;4094;49.948;11.574;2023-06-14T06:15:19;7.70;;;7.00;;
8102;SDS011;4094;49.948;11.574;2023-06-14T06:17:49;8.10;;;7.40;;
8102;SDS011;4094;49.948;11.574;2023-06-14T06:20:24;8.43;;;6.93;;
8102;SDS011;4094;49.948;11.574;2023-06-14T06:22:58;7.43;;;6.83;;
8102;SDS011;4094;49.948;11.574;2023-06-14T06:25:29;6.80;;;6.27;;
8102;SDS011;4094;49.948;11.574;2023-06-14T06:28:00;8.70;;;7.57;;
8102;SDS011;4094;49.948;11.574;2023-06-14T06:30:29;7.77;;;7.07;;
8102;SDS011;4094;49.948;11.574;2023-06-14T06:32:59;7.70;;;6.90;;
8102;SDS011;4094;49.948;11.574;2023-06-14T06:35:28;12.57;;;7.00;;
8102;SDS011;4094;49.948;11.574;2023-06-14T06:38:00;7.77;;;7.07;;
8102;SDS011;4094;49.948;11.574;2023-06-14T06:40:29;7.20;;;6.70;;
8102;SDS011;4094;49.948;11.574;2023-06-14T06:43:01;6.90;;;6.30;;
8102;SDS011;4094;49.948;11.574;2023-06-14T06:45:35;7.83;;;7.13;;
8102;SDS011;4094;49.948;11.574;2023-06-14T06:48:05;7.00;;;6.27;;
8102;SDS011;4094;49.948;11.574;2023-06-14T06:50:34;7.13;;;6.53;;
8102;SDS011;4094;49.948;11.574;2023-06-14T06:53:03;6.43;;;6.03;;
8102;SDS011;4094;49.948;11.574;2023-06-14T06:55:34;6.93;;;6.33;;
8102;SDS011;4094;49.948;11.574;2023-06-14T06:58:04;6.63;;;5.97;;
8102;SDS011;4094;49.948;11.574;2023-06-14T07:00:34;6.27;;;5.77;;
8102;SDS011;4094;49.948;11.574;2023-06-14T07:03:03;6.37;;;5.77;;
8102;SDS011;4094;49.948;11.574;2023-06-14T07:05:32;6.70;;;6.03;;
8102;SDS011;4094;49.948;11.574;2023-06-14T07:08:01;6.43;;;5.83;;
8102;SDS011;4094;49.948;11.574;2023-06-14T07:10:30;6.20;;;5.70;;
8102;SDS011;4094;49.948;11.574;2023-06-14T07:12:59;7.63;;;5.73;;
8102;SDS011;4094;49.948;11.574;2023-06-14T07:15:30;6.70;;;5.63;;
8102;SDS011;4094;49.948;11.574;2023-06-14T07:17:59;6.30;;;5.80;;
8102;SDS011;4094;49.948;11.574;2023-06-14T07:20:28;5.87;;;5.27;;
8102;SDS011;4094;49.948;11.574;2023-06-14T07:22:58;6.10;;;5.50;;
8102;SDS011;4094;49.948;11.574;2023-06-14T07:25:27;6.07;;;5.47;;
8102;SDS011;4094;49.948;11.574;2023-06-14T07:27:57;5.37;;;4.87;;
8102;SDS011;4094;49.948;11.574;2023-06-14T07:30:26;5.53;;;5.13;;
8102;SDS011;4094;49.948;11.574;2023-06-14T07:32:58;5.23;;;4.73;;
8102;SDS011;4094;49.948;11.574;2023-06-14T07:35:28;5.10;;;4.63;;
8102;SDS011;4094;49.948;11.574;2023-06-14T07:37:57;4.73;;;4.10;;
8102;SDS011;4094;49.948;11.574;2023-06-14T07:40:26;4.90;;;4.50;;
8102;SDS011;4094;49.948;11.574;2023-06-14T07:42:55;5.23;;;4.70;;
8102;SDS011;4094;49.948;11.574;2023-06-14T07:45:24;4.50;;;3.90;;
8102;SDS011;4094;49.948;11.574;2023-06-14T07:47:53;5.10;;;4.10;;
8102;SDS011;4094;49.948;11.574;2023-06-14T07:50:25;3.87;;;3.57;;
8102;SDS011;4094;49.948;11.574;2023-06-14T07:52:54;3.20;;;2.90;;
8102;SDS011;4094;49.948;11.574;2023-06-14T07:55:24;3.87;;;3.40;;
8102;SDS011;4094;49.948;11.574;2023-06-14T07:57:58;3.77;;;3.47;;
8102;SDS011;4094;49.948;11.574;2023-06-14T08:00:27;3.57;;;3.33;;
8102;SDS011;4094;49.948;11.574;2023-06-14T08:02:57;3.17;;;2.97;;
8102;SDS011;4094;49.948;11.574;2023-06-14T08:05:29;3.70;;;2.90;;
8102;SDS011;4094;49.948;11.574;2023-06-14T08:07:58;3.87;;;3.20;;
8102;SDS011;4094;49.948;11.574;2023-06-14T08:10:28;4.43;;;3.10;;
8102;SDS011;4094;49.948;11.574;2023-06-14T08:12:57;2.73;;;2.53;;
8102;SDS011;4094;49.948;11.574;2023-06-14T08:15:26;3.30;;;3.10;;
8102;SDS011;4094;49.948;11.574;2023-06-14T08:17:55;3.43;;;3.20;;
8102;SDS011;4094;49.948;11.574;2023-06-14T08:20:27;3.20;;;2.90;;
8102;SDS011;4094;49.948;11.574;2023-06-14T08:22:59;3.20;;;2.90;;
8102;SDS011;4094;49.948;11.574;2023-06-14T08:25:29;3.47;;;3.10;;
8102;SDS011;4094;49.948;11.574;2023-06-14T08:27:58;3.80;;;2.70;;
8102;SDS011;4094;49.948;11.574;2023-06-14T08:30:27;3.67;;;2.80;;
8102;SDS011;4094;49.948;11.574;2023-06-14T08:32:56;2.50;;;2.40;;
8102;SDS011;4094;49.948;11.574;2023-06-14T08:35:41;3.20;;;2.90;;
8102;SDS011;4094;49.948;11.574;2023-06-14T08:38:12;5.07;;;4.57;;
8102;SDS011;4094;49.948;11.574;2023-06-14T08:40:41;6.10;;;5.50;;
8102;SDS011;4094;49.948;11.574;2023-06-14T08:43:11;6.17;;;3.70;;
8102;SDS011;4094;49.948;11.574;2023-06-14T08:45:40;5.43;;;4.00;;
8102;SDS011;4094;49.948;11.574;2023-06-14T08:48:09;5.20;;;4.73;;
8102;SDS011;4094;49.948;11.574;2023-06-14T08:50:39;4.57;;;4.17;;
8102;SDS011;4094;49.948;11.574;2023-06-14T08:53:11;3.20;;;2.90;;
8102;SDS011;4094;49.948;11.574;2023-06-14T08:55:47;3.03;;;2.83;;
8102;SDS011;4094;49.948;11.574;2023-06-14T08:58:17;3.10;;;2.73;;
8102;SDS011;4094;49.948;11.574;2023-06-14T09:00:47;3.40;;;2.80;;
8102;SDS011;4094;49.948;11.574;2023-06-14T09:03:17;3.13;;;2.90;;
8102;SDS011;4094;49.948;11.574;2023-06-14T09:05:47;3.03;;;2.80;;
8102;SDS011;4094;49.948;11.574;2023-06-14T09:08:18;6.57;;;2.50;;
8102;SDS011;4094;49.948;11.574;2023-06-14T09:10:49;5.30;;;2.90;;
8102;SDS011;4094;49.948;11.574;2023-06-14T09:13:19;8.67;;;2.90;;
8102;SDS011;4094;49.948;11.574;2023-06-14T09:15:48;2.73;;;2.50;;
8102;SDS011;4094;49.948;11.574;2023-06-14T09:18:18;2.70;;;2.50;;
8102;SDS011;4094;49.948;11.574;2023-06-14T09:20:48;2.63;;;2.30;;
8102;SDS011;4094;49.948;11.574;2023-06-14T09:23:21;2.80;;;2.60;;
8102;SDS011;4094;49.948;11.574;2023-06-14T09:25:50;2.70;;;2.50;;
8102;SDS011;4094;49.948;11.574;2023-06-14T09:28:20;2.70;;;2.50;;
8102;SDS011;4094;49.948;11.574;2023-06-14T09:30:55;3.83;;;2.67;;
8102;SDS011;4094;49.948;11.574;2023-06-14T09:33:25;3.97;;;2.70;;
8102;SDS011;4094;49.948;11.574;2023-06-14T09:35:54;2.87;;;2.60;;
8102;SDS011;4094;49.948;11.574;2023-06-14T09:38:25;3.20;;;2.90;;
8102;SDS011;4094;49.948;11.574;2023-06-14T09:40:56;3.27;;;3.00;;
8102;SDS011;4094;49.948;11.574;2023-06-14T09:43:26;2.70;;;2.50;;
8102;SDS011;4094;49.948;11.574;2023-06-14T09:45:56;2.80;;;2.60;;
8102;SDS011;4094;49.948;11.574;2023-06-14T09:48:25;2.63;;;2.43;;
8102;SDS011;4094;49.948;11.574;2023-06-14T09:50:55;4.53;;;2.70;;
8102;SDS011;4094;49.948;11.574;2023-06-14T09:53:30;2.60;;;2.40;;
8102;SDS011;4094;49.948;11.574;2023-06-14T09:56:01;3.30;;;2.63;;
8102;SDS011;4094;49.948;11.574;2023-06-14T09:58:31;3.53;;;2.70;;
8102;SDS011;4094;49.948;11.574;2023-06-14T10:01:05;2.50;;;2.30;;
8102;SDS011;4094;49.948;11.574;2023-06-14T10:03:37;2.43;;;2.23;;
8102;SDS011;4094;49.948;11.574;2023-06-14T10:06:27;2.60;;;2.37;;
8102;SDS011;4094;49.948;11.574;2023-06-14T10:08:59;2.70;;;2.50;;
8102;SDS011;4094;49.948;11.574;2023-06-14T10:11:29;2.63;;;2.43;;
8102;SDS011;4094;49.948;11.574;2023-06-14T10:13:58;2.50;;;2.30;;
8102;SDS011;4094;49.948;11.574;2023-06-14T10:16:28;2.80;;;2.50;;
8102;SDS011;4094;49.948;11.574;2023-06-14T10:19:03;2.70;;;2.50;;
8102;SDS011;4094;49.948;11.574;2023-06-14T10:21:37;3.37;;;2.83;;
8102;SDS011;4094;49.948;11.574;2023-06-14T10:24:17;2.30;;;2.10;;
8102;SDS011;4094;49.948;11.574;2023-06-14T10:26:51;2.47;;;2.27;;
8102;SDS011;4094;49.948;11.574;2023-06-14T10:29:26;2.40;;;2.20;;
8102;SDS011;4094;49.948;11.574;2023-06-14T10:31:59;3.50;;;2.57;;
8102;SDS011;4094;49.948;11.574;2023-06-14T10:34:31;2.57;;;2.37;;
8102;SDS011;4094;49.948;11.574;2023-06-14T10:37:01;2.43;;;2.23;;
8102;SDS011;4094;49.948;11.574;2023-06-14T10:39:37;2.60;;;2.40;;
8102;SDS011;4094;49.948;11.574;2023-06-14T10:42:08;2.67;;;2.47;;
8102;SDS011;4094;49.948;11.574;2023-06-14T10:44:39;2.93;;;2.30;;
8102;SDS011;4094;49.948;11.574;2023-06-14T10:47:10;2.67;;;2.23;;
8102;SDS011;4094;49.948;11.574;2023-06-14T10:49:51;2.50;;;2.30;;
8102;SDS011;4094;49.948;11.574;2023-06-14T10:52:23;2.33;;;2.13;;
8102;SDS011;4094;49.948;11.574;2023-06-14T10:55:01;3.00;;;2.60;;
8102;SDS011;4094;49.948;11.574;2023-06-14T10:57:33;2.30;;;2.00;;
8102;SDS011;4094;49.948;11.574;2023-06-14T11:00:07;2.27;;;2.00;;
8102;SDS011;4094;49.948;11.574;2023-06-14T11:02:51;2.50;;;2.30;;
8102;SDS011;4094;49.948;11.574;2023-06-14T11:05:41;2.63;;;2.10;;
8102;SDS011;4094;49.948;11.574;2023-06-14T11:11:41;2.77;;;2.57;;
8102;SDS011;4094;49.948;11.574;2023-06-14T11:14:11;2.53;;;2.33;;
8102;SDS011;4094;49.948;11.574;2023-06-14T11:16:40;3.90;;;2.20;;
8102;SDS011;4094;49.948;11.574;2023-06-14T11:19:09;3.30;;;2.00;;
8102;SDS011;4094;49.948;11.574;2023-06-14T11:21:39;3.53;;;2.33;;
8102;SDS011;4094;49.948;11.574;2023-06-14T11:24:09;2.50;;;2.30;;
8102;SDS011;4094;49.948;11.574;2023-06-14T11:26:40;2.60;;;2.40;;
8102;SDS011;4094;49.948;11.574;2023-06-14T11:29:10;2.90;;;2.67;;
8102;SDS011;4094;49.948;11.574;2023-06-14T11:31:42;2.93;;;2.57;;
8102;SDS011;4094;49.948;11.574;2023-06-14T11:34:13;2.63;;;2.40;;
8102;SDS011;4094;49.948;11.574;2023-06-14T11:36:44;2.50;;;2.30;;
8102;SDS011;4094;49.948;11.574;2023-06-14T11:39:15;2.60;;;2.37;;
8102;SDS011;4094;49.948;11.574;2023-06-14T11:41:45;2.40;;;2.20;;
8102;SDS011;4094;49.948;11.574;2023-06-14T11:44:14;2.97;;;2.40;;
8102;SDS011;4094;49.948;11.574;2023-06-14T11:46:44;3.60;;;2.40;;
8102;SDS011;4094;49.948;11.574;2023-06-14T11:49:13;2.50;;;2.30;;
8102;SDS011;4094;49.948;11.574;2023-06-14T11:51:42;2.77;;;2.40;;
8102;SDS011;4094;49.948;11.574;2023-06-14T11:54:11;2.90;;;2.70;;
8102;SDS011;4094;49.948;11.574;2023-06-14T11:56:41;2.70;;;2.50;;
8102;SDS011;4094;49.948;11.574;2023-06-14T11:59:13;2.70;;;2.50;;
8102;SDS011;4094;49.948;11.574;2023-06-14T12:01:42;2.60;;;2.40;;
8102;SDS011;4094;49.948;11.574;2023-06-14T12:04:13;2.67;;;2.47;;
8102;SDS011;4094;49.948;11.574;2023-06-14T12:06:42;2.40;;;2.20;;
8102;SDS011;4094;49.948;11.574;2023-06-14T12:09:11;2.23;;;2.10;;
8102;SDS011;4094;49.948;11.574;2023-06-14T12:11:44;5.70;;;2.83;;
8102;SDS011;4094;49.948;11.574;2023-06-14T12:14:15;3.70;;;2.50;;
8102;SDS011;4094;49.948;11.574;2023-06-14T12:16:44;2.70;;;2.50;;
8102;SDS011;4094;49.948;11.574;2023-06-14T12:19:14;2.60;;;2.40;;
8102;SDS011;4094;49.948;11.574;2023-06-14T12:21:46;3.30;;;2.60;;
8102;SDS011;4094;49.948;11.574;2023-06-14T12:24:16;2.70;;;2.50;;
8102;SDS011;4094;49.948;11.574;2023-06-14T12:26:46;3.07;;;2.30;;
8102;SDS011;4094;49.948;11.574;2023-06-14T12:29:18;3.20;;;2.30;;
8102;SDS011;4094;49.948;11.574;2023-06-14T12:31:48;3.90;;;2.70;;
8102;SDS011;4094;49.948;11.574;2023-06-14T12:34:17;2.93;;;2.73;;
8102;SDS011;4094;49.948;11.574;2023-06-14T12:36:46;3.37;;;2.50;;
8102;SDS011;4094;49.948;11.574;2023-06-14T12:39:15;3.67;;;2.60;;
8102;SDS011;4094;49.948;11.574;2023-06-14T12:41:45;3.47;;;2.53;;
8102;SDS011;4094;49.948;11.574;2023-06-14T12:44:15;2.60;;;2.40;;
8102;SDS011;4094;49.948;11.574;2023-06-14T12:46:45;2.73;;;2.53;;
8102;SDS011;4094;49.948;11.574;2023-06-14T12:49:15;2.80;;;2.60;;
8102;SDS011;4094;49.948;11.574;2023-06-14T12:51:44;4.47;;;2.50;;
8102;SDS011;4094;49.948;11.574;2023-06-14T12:54:13;2.77;;;2.50;;
8102;SDS011;4094;49.948;11.574;2023-06-14T12:56:54;2.90;;;2.70;;
8102;SDS011;4094;49.948;11.574;2023-06-14T12:59:25;2.80;;;2.60;;
8102;SDS011;4094;49.948;11.574;2023-06-14T13:02:10;3.70;;;2.80;;
8102;SDS011;4094;49.948;11.574;2023-06-14T13:04:43;3.20;;;2.90;;
8102;SDS011;4094;49.948;11.574;2023-06-14T13:07:13;3.10;;;2.73;;
8102;SDS011;4094;49.948;11.574;2023-06-14T13:09:42;4.23;;;3.10;;
8102;SDS011;4094;49.948;11.574;2023-06-14T13:12:12;3.40;;;2.80;;
8102;SDS011;4094;49.948;11.574;2023-06-14T13:14:42;4.53;;;2.67;;
8102;SDS011;4094;49.948;11.574;2023-06-14T13:17:12;2.90;;;2.70;;
8102;SDS011;4094;49.948;11.574;2023-06-14T13:19:41;4.70;;;3.00;;
8102;SDS011;4094;49.948;11.574;2023-06-14T13:22:10;4.47;;;2.87;;
8102;SDS011;4094;49.948;11.574;2023-06-14T13:24:39;4.10;;;2.70;;
8102;SDS011;4094;49.948;11.574;2023-06-14T13:27:09;2.87;;;2.60;;
8102;SDS011;4094;49.948;11.574;2023-06-14T13:29:38;3.47;;;2.77;;
8102;SDS011;4094;49.948;11.574;2023-06-14T13:32:09;4.23;;;2.83;;
8102;SDS011;4094;49.948;11.574;2023-06-14T13:34:38;4.20;;;2.93;;
8102;SDS011;4094;49.948;11.574;2023-06-14T13:37:07;2.87;;;2.67;;
8102;SDS011;4094;49.948;11.574;2023-06-14T13:39:36;3.03;;;2.73;;
8102;SDS011;4094;49.948;11.574;2023-06-14T13:42:06;4.47;;;2.80;;
8102;SDS011;4094;49.948;11.574;2023-06-14T13:44:36;3.93;;;2.80;;
8102;SDS011;4094;49.948;11.574;2023-06-14T13:47:05;4.93;;;3.10;;
8102;SDS011;4094;49.948;11.574;2023-06-14T13:49:36;3.77;;;2.80;;
8102;SDS011;4094;49.948;11.574;2023-06-14T13:52:06;3.37;;;2.93;;
8102;SDS011;4094;49.948;11.574;2023-06-14T13:54:36;3.10;;;2.90;;
8102;SDS011;4094;49.948;11.574;2023-06-14T13:57:05;2.77;;;2.57;;
8102;SDS011;4094;49.948;11.574;2023-06-14T13:59:35;3.87;;;2.80;;
8102;SDS011;4094;49.948;11.574;2023-06-14T14:02:05;2.70;;;2.50;;
8102;SDS011;4094;49.948;11.574;2023-06-14T14:04:34;3.47;;;2.73;;
8102;SDS011;4094;49.948;11.574;2023-06-14T14:07:06;3.57;;;2.47;;
8102;SDS011;4094;49.948;11.574;2023-06-14T14:09:35;2.83;;;2.30;;
8102;SDS011;4094;49.948;11.574;2023-06-14T14:12:06;2.50;;;2.30;;
8102;SDS011;4094;49.948;11.574;2023-06-14T14:14:36;2.57;;;2.37;;
8102;SDS011;4094;49.948;11.574;2023-06-14T14:17:05;2.30;;;2.17;;
8102;SDS011;4094;49.948;11.574;2023-06-14T14:19:35;2.73;;;2.47;;
8102;SDS011;4094;49.948;11.574;2023-06-14T14:22:05;3.70;;;2.40;;
8102;SDS011;4094;49.948;11.574;2023-06-14T14:24:35;3.10;;;2.70;;
8102;SDS011;4094;49.948;11.574;2023-06-14T14:27:05;2.93;;;2.63;;
8102;SDS011;4094;49.948;11.574;2023-06-14T14:29:35;3.40;;;2.30;;
8102;SDS011;4094;49.948;11.574;2023-06-14T14:32:07;4.23;;;2.80;;
8102;SDS011;4094;49.948;11.574;2023-06-14T14:34:42;2.70;;;2.50;;
8102;SDS011;4094;49.948;11.574;2023-06-14T14:37:12;3.33;;;2.60;;
8102;SDS011;4094;49.948;11.574;2023-06-14T14:39:43;4.87;;;2.93;;
8102;SDS011;4094;49.948;11.574;2023-06-14T14:42:13;5.17;;;3.03;;
8102;SDS011;4094;49.948;11.574;2023-06-14T14:44:42;3.10;;;2.90;;
8102;SDS011;4094;49.948;11.574;2023-06-14T14:47:12;3.37;;;3.07;;
8102;SDS011;4094;49.948;11.574;2023-06-14T14:49:42;3.27;;;2.97;;
8102;SDS011;4094;49.948;11.574;2023-06-14T14:52:11;2.90;;;2.70;;
8102;SDS011;4094;49.948;11.574;2023-06-14T14:54:50;7.30;;;2.87;;
8102;SDS011;4094;49.948;11.574;2023-06-14T14:57:20;2.90;;;2.70;;
8102;SDS011;4094;49.948;11.574;2023-06-14T14:59:50;3.20;;;3.00;;
8102;SDS011;4094;49.948;11.574;2023-06-14T15:02:20;3.10;;;2.80;;
8102;SDS011;4094;49.948;11.574;2023-06-14T15:04:52;3.27;;;2.97;;
8102;SDS011;4094;49.948;11.574;2023-06-14T15:07:21;3.40;;;3.10;;
8102;SDS011;4094;49.948;11.574;2023-06-14T15:09:51;3.30;;;3.00;;
8102;SDS011;4094;49.948;11.574;2023-06-14T15:12:20;3.20;;;3.00;;
8102;SDS011;4094;49.948;11.574;2023-06-14T15:14:51;3.30;;;3.00;;
8102;SDS011;4094;49.948;11.574;2023-06-14T15:17:20;3.97;;;3.10;;
8102;SDS011;4094;49.948;11.574;2023-06-14T15:19:53;3.00;;;2.80;;
8102;SDS011;4094;49.948;11.574;2023-06-14T15:22:22;5.20;;;2.97;;
8102;SDS011;4094;49.948;11.574;2023-06-14T15:24:52;3.00;;;2.80;;